TimeCDT,TemperatureF,Dew PointF,Humidity,Sea Level PressureIn,VisibilityMPH,Wind Direction,Wind SpeedMPH,Gust SpeedMPH,PrecipitationIn,Events,Conditions,WindDirDegrees,DateUTC
12:01 AM,64.4,55.4,73,29.96,10.0,SE,5.8,-,N/A,,Clear,130,2013-07-04 05:01:00
12:21 AM,62.6,55.4,77,29.96,10.0,SE,5.8,-,N/A,,Clear,130,2013-07-04 05:21:00
12:41 AM,62.6,55.4,77,29.96,10.0,SE,5.8,-,N/A,,Clear,130,2013-07-04 05:41:00
1:01 AM,62.6,55.4,77,29.95,10.0,SE,6.9,-,N/A,,Clear,130,2013-07-04 06:01:00
1:21 AM,62.6,55.4,77,29.95,10.0,SSE,5.8,-,N/A,,Clear,150,2013-07-04 06:21:00
1:41 AM,62.6,55.4,77,29.95,4.0,SE,4.6,-,N/A,,Clear,130,2013-07-04 06:41:00
2:21 AM,60.8,55.4,82,29.95,7.0,SE,5.8,-,N/A,,Clear,130,2013-07-04 07:21:00
2:41 AM,60.8,55.4,82,29.94,10.0,ESE,5.8,-,N/A,,Scattered Clouds,120,2013-07-04 07:41:00
3:01 AM,60.8,55.4,82,29.94,10.0,ESE,4.6,-,N/A,,Scattered Clouds,120,2013-07-04 08:01:00
3:21 AM,62.6,55.4,77,29.94,10.0,ESE,5.8,-,N/A,,Mostly Cloudy,110,2013-07-04 08:21:00
3:41 AM,62.6,53.6,72,29.93,10.0,ESE,4.6,-,N/A,,Scattered Clouds,110,2013-07-04 08:41:00
4:01 AM,60.8,53.6,77,29.93,10.0,ESE,5.8,-,N/A,,Scattered Clouds,110,2013-07-04 09:01:00
4:21 AM,60.8,53.6,77,29.93,10.0,ESE,4.6,-,N/A,,Clear,120,2013-07-04 09:21:00
4:41 AM,60.8,53.6,77,29.93,10.0,ESE,4.6,-,N/A,,Clear,120,2013-07-04 09:41:00
5:01 AM,59.0,55.4,88,29.93,10.0,SE,4.6,-,N/A,,Clear,130,2013-07-04 10:01:00
5:41 AM,59.0,53.6,82,29.93,10.0,SE,4.6,-,N/A,,Clear,130,2013-07-04 10:41:00
6:21 AM,59.0,55.4,88,29.93,10.0,SE,3.5,-,N/A,,Clear,130,2013-07-04 11:21:00
6:41 AM,60.8,55.4,82,29.93,10.0,SE,3.5,-,N/A,,Clear,140,2013-07-04 11:41:00
7:01 AM,62.6,55.4,77,29.92,10.0,SE,3.5,-,N/A,,Clear,130,2013-07-04 12:01:00
7:21 AM,64.4,57.2,77,29.92,10.0,SSE,2.3,-,N/A,,Clear,150,2013-07-04 12:21:00
7:41 AM,66.2,57.2,73,29.93,10.0,South,2.3,-,N/A,,Clear,190,2013-07-04 12:41:00
8:01 AM,69.8,59.0,68,29.93,10.0,South,2.3,-,N/A,,Clear,190,2013-07-04 13:01:00
8:41 AM,73.4,59.0,61,29.91,10.0,South,6.9,-,N/A,,Clear,180,2013-07-04 13:41:00
9:01 AM,73.4,59.0,61,29.91,10.0,South,9.2,-,N/A,,Clear,180,2013-07-04 14:01:00
9:21 AM,75.2,59.0,57,29.91,10.0,South,6.9,-,N/A,,Clear,180,2013-07-04 14:21:00
9:41 AM,75.2,59.0,57,29.91,10.0,South,9.2,-,N/A,,Scattered Clouds,170,2013-07-04 14:41:00
10:01 AM,75.2,59.0,57,29.90,10.0,SSE,9.2,-,N/A,,Scattered Clouds,160,2013-07-04 15:01:00
10:21 AM,78.8,60.8,54,29.90,10.0,South,12.7,16.1,N/A,,Clear,180,2013-07-04 15:21:00
10:41 AM,80.6,59.0,48,29.89,10.0,South,12.7,17.3,N/A,,Clear,180,2013-07-04 15:41:00
11:01 AM,80.6,57.2,45,29.89,10.0,South,12.7,-,N/A,,Clear,170,2013-07-04 16:01:00
11:21 AM,82.4,57.2,42,29.89,10.0,South,16.1,19.6,N/A,,Clear,180,2013-07-04 16:21:00
11:41 AM,82.4,57.2,42,29.89,10.0,South,17.3,20.7,N/A,,Clear,170,2013-07-04 16:41:00
12:01 PM,82.4,57.2,42,29.88,10.0,SSE,16.1,19.6,N/A,,Clear,160,2013-07-04 17:01:00
12:41 PM,84.2,55.4,37,29.88,10.0,South,18.4,-,N/A,,Clear,170,2013-07-04 17:41:00
1:01 PM,86.0,57.2,37,29.87,10.0,South,13.8,-,N/A,,Clear,170,2013-07-04 18:01:00
1:21 PM,86.0,55.4,35,29.87,10.0,South,17.3,23.0,N/A,,Clear,180,2013-07-04 18:21:00
1:41 PM,87.8,55.4,33,29.87,10.0,South,17.3,26.5,N/A,,Clear,180,2013-07-04 18:41:00
2:01 PM,87.8,55.4,33,29.86,10.0,South,16.1,26.5,N/A,,Clear,180,2013-07-04 19:01:00
2:21 PM,87.8,53.6,31,29.86,10.0,South,19.6,-,N/A,,Clear,170,2013-07-04 19:21:00
3:01 PM,87.8,53.6,31,29.85,10.0,South,17.3,26.5,N/A,,Clear,180,2013-07-04 20:01:00
3:21 PM,86.0,53.6,33,29.85,10.0,South,20.7,25.3,N/A,,Clear,180,2013-07-04 20:21:00
3:41 PM,86.0,53.6,33,29.84,10.0,South,17.3,25.3,N/A,,Clear,170,2013-07-04 20:41:00
4:01 PM,87.8,55.4,33,29.85,10.0,South,15.0,20.7,N/A,,Clear,170,2013-07-04 21:01:00
4:21 PM,87.8,53.6,31,29.84,10.0,South,17.3,24.2,N/A,,Clear,180,2013-07-04 21:21:00
4:41 PM,87.8,53.6,31,29.84,10.0,South,20.7,24.2,N/A,,Clear,180,2013-07-04 21:41:00
5:01 PM,87.8,55.4,33,29.84,10.0,South,18.4,21.9,N/A,,Clear,180,2013-07-04 22:01:00
5:21 PM,87.8,55.4,33,29.83,10.0,South,18.4,24.2,N/A,,Clear,190,2013-07-04 22:21:00
5:41 PM,86.0,53.6,33,29.83,10.0,South,16.1,25.3,N/A,,Clear,180,2013-07-04 22:41:00
6:01 PM,84.2,55.4,37,29.83,10.0,South,13.8,-,N/A,,Clear,180,2013-07-04 23:01:00
6:21 PM,84.2,55.4,37,29.83,10.0,South,10.4,-,N/A,,Clear,170,2013-07-04 23:21:00
6:41 PM,82.4,55.4,39,29.82,10.0,South,12.7,17.3,N/A,,Clear,170,2013-07-04 23:41:00
7:01 PM,82.4,55.4,39,29.83,10.0,South,12.7,-,N/A,,Clear,170,2013-07-05 00:01:00
7:21 PM,80.6,57.2,45,29.82,10.0,South,9.2,-,N/A,,Clear,170,2013-07-05 00:21:00
7:41 PM,80.6,57.2,45,29.82,10.0,South,8.1,-,N/A,,Clear,170,2013-07-05 00:41:00
8:01 PM,80.6,57.2,45,29.82,10.0,South,11.5,-,N/A,,Clear,170,2013-07-05 01:01:00
8:21 PM,80.6,57.2,45,29.82,10.0,South,9.2,-,N/A,,Clear,170,2013-07-05 01:21:00
8:41 PM,80.6,57.2,45,29.82,10.0,South,10.4,-,N/A,,Clear,170,2013-07-05 01:41:00
9:01 PM,77.0,57.2,50,29.82,10.0,South,9.2,-,N/A,,Clear,170,2013-07-05 02:01:00
9:21 PM,75.2,57.2,53,29.82,10.0,South,8.1,-,N/A,,Clear,170,2013-07-05 02:21:00
9:41 PM,75.2,57.2,53,29.83,10.0,SSE,8.1,-,N/A,,Clear,160,2013-07-05 02:41:00
10:21 PM,73.4,57.2,57,29.84,10.0,SSE,8.1,-,N/A,,Clear,160,2013-07-05 03:21:00
10:41 PM,73.4,57.2,57,29.84,10.0,SSE,9.2,-,N/A,,Clear,160,2013-07-05 03:41:00
11:01 PM,73.4,57.2,57,29.85,10.0,South,9.2,-,N/A,,Clear,170,2013-07-05 04:01:00
11:21 PM,75.2,57.2,53,29.84,10.0,South,11.5,-,N/A,,Clear,170,2013-07-05 04:21:00
11:41 PM,75.2,57.2,53,29.84,10.0,South,10.4,-,N/A,,Clear,170,2013-07-05 04:41:00